sensor_id;sensor_type;location;lat;lon;timestamp;P1;durP1;ratioP1;P2;durP2;ratioP2
71610;SDS011;59459;51.172;6.682;2023-12-20T00:00:00;9.90;;;2.60;;
71610;SDS011;59459;51.172;6.682;2023-12-20T00:02:25;9.13;;;2.87;;
71610;SDS011;59459;51.172;6.682;2023-12-20T00:04:50;10.00;;;2.70;;
71610;SDS011;59459;51.172;6.682;2023-12-20T00:07:15;11.07;;;2.30;;
71610;SDS011;59459;51.172;6.682;2023-12-20T00:09:40;11.07;;;3.20;;
71610;SDS011;59459;51.172;6.682;2023-12-20T00:12:06;13.87;;;3.70;;
71610;SDS011;59459;51.172;6.682;2023-12-20T00:14:31;11.47;;;3.13;;
71610;SDS011;59459;51.172;6.682;2023-12-20T00:16:56;9.87;;;3.37;;
71610;SDS011;59459;51.172;6.682;2023-12-20T00:19:21;11.83;;;3.43;;
71610;SDS011;59459;51.172;6.682;2023-12-20T00:21:47;12.40;;;3.17;;
71610;SDS011;59459;51.172;6.682;2023-12-20T00:24:12;12.50;;;3.87;;
71610;SDS011;59459;51.172;6.682;2023-12-20T00:26:37;10.20;;;3.00;;
71610;SDS011;59459;51.172;6.682;2023-12-20T00:29:02;12.00;;;3.50;;
71610;SDS011;59459;51.172;6.682;2023-12-20T00:31:27;13.00;;;4.43;;
71610;SDS011;59459;51.172;6.682;2023-12-20T00:33:53;11.70;;;3.83;;
71610;SDS011;59459;51.172;6.682;2023-12-20T00:36:18;12.00;;;3.57;;
71610;SDS011;59459;51.172;6.682;2023-12-20T00:38:43;13.73;;;3.93;;
71610;SDS011;59459;51.172;6.682;2023-12-20T00:41:08;11.07;;;3.90;;
71610;SDS011;59459;51.172;6.682;2023-12-20T00:43:34;12.23;;;3.70;;
71610;SDS011;59459;51.172;6.682;2023-12-20T00:45:59;12.27;;;4.43;;
71610;SDS011;59459;51.172;6.682;2023-12-20T00:48:25;13.27;;;3.97;;
71610;SDS011;59459;51.172;6.682;2023-12-20T00:50:52;17.95;;;4.75;;
71610;SDS011;59459;51.172;6.682;2023-12-20T00:53:17;10.00;;;3.23;;
71610;SDS011;59459;51.172;6.682;2023-12-20T00:55:42;9.97;;;3.20;;
71610;SDS011;59459;51.172;6.682;2023-12-20T00:58:09;11.77;;;3.20;;
71610;SDS011;59459;51.172;6.682;2023-12-20T01:00:34;12.77;;;3.03;;
71610;SDS011;59459;51.172;6.682;2023-12-20T01:02:59;11.37;;;3.80;;
71610;SDS011;59459;51.172;6.682;2023-12-20T01:05:24;16.03;;;4.40;;
71610;SDS011;59459;51.172;6.682;2023-12-20T01:07:50;16.83;;;4.57;;
71610;SDS011;59459;51.172;6.682;2023-12-20T01:10:15;18.87;;;5.53;;
71610;SDS011;59459;51.172;6.682;2023-12-20T01:12:40;15.87;;;5.70;;
71610;SDS011;59459;51.172;6.682;2023-12-20T01:15:05;22.93;;;5.90;;
71610;SDS011;59459;51.172;6.682;2023-12-20T01:17:31;18.70;;;6.50;;
71610;SDS011;59459;51.172;6.682;2023-12-20T01:19:56;18.80;;;6.70;;
71610;SDS011;59459;51.172;6.682;2023-12-20T01:22:21;20.00;;;7.03;;
71610;SDS011;59459;51.172;6.682;2023-12-20T01:24:46;19.40;;;6.53;;
71610;SDS011;59459;51.172;6.682;2023-12-20T01:27:12;15.07;;;5.73;;
71610;SDS011;59459;51.172;6.682;2023-12-20T01:29:37;19.47;;;7.10;;
71610;SDS011;59459;51.172;6.682;2023-12-20T01:32:02;17.73;;;5.90;;
71610;SDS011;59459;51.172;6.682;2023-12-20T01:34:27;20.67;;;6.73;;
71610;SDS011;59459;51.172;6.682;2023-12-20T01:36:52;20.77;;;5.73;;
71610;SDS011;59459;51.172;6.682;2023-12-20T01:39:18;15.87;;;5.60;;
71610;SDS011;59459;51.172;6.682;2023-12-20T01:41:43;16.87;;;5.80;;
71610;SDS011;59459;51.172;6.682;2023-12-20T01:44:08;15.73;;;5.37;;
71610;SDS011;59459;51.172;6.682;2023-12-20T01:46:33;13.87;;;5.03;;
71610;SDS011;59459;51.172;6.682;2023-12-20T01:48:59;15.23;;;5.40;;
71610;SDS011;59459;51.172;6.682;2023-12-20T01:51:24;16.60;;;5.97;;
71610;SDS011;59459;51.172;6.682;2023-12-20T01:53:53;15.63;;;5.43;;
71610;SDS011;59459;51.172;6.682;2023-12-20T01:56:20;17.42;;;5.22;;
71610;SDS011;59459;51.172;6.682;2023-12-20T01:58:46;16.27;;;4.57;;
71610;SDS011;59459;51.172;6.682;2023-12-20T02:01:12;11.10;;;4.50;;
71610;SDS011;59459;51.172;6.682;2023-12-20T02:03:38;16.10;;;5.18;;
71610;SDS011;59459;51.172;6.682;2023-12-20T02:06:04;18.50;;;4.83;;
71610;SDS011;59459;51.172;6.682;2023-12-20T02:08:30;13.70;;;4.97;;
71610;SDS011;59459;51.172;6.682;2023-12-20T02:10:55;13.43;;;4.93;;
71610;SDS011;59459;51.172;6.682;2023-12-20T02:13:21;13.35;;;4.80;;
71610;SDS011;59459;51.172;6.682;2023-12-20T02:15:46;15.03;;;4.23;;
71610;SDS011;59459;51.172;6.682;2023-12-20T02:18:11;12.60;;;4.17;;
71610;SDS011;59459;51.172;6.682;2023-12-20T02:20:40;26.30;;;4.30;;
71610;SDS011;59459;51.172;6.682;2023-12-20T02:23:05;13.30;;;3.90;;
71610;SDS011;59459;51.172;6.682;2023-12-20T02:25:30;12.33;;;4.17;;
71610;SDS011;59459;51.172;6.682;2023-12-20T02:27:55;11.07;;;2.90;;
71610;SDS011;59459;51.172;6.682;2023-12-20T02:30:21;14.00;;;3.77;;
71610;SDS011;59459;51.172;6.682;2023-12-20T02:32:46;10.83;;;2.67;;
71610;SDS011;59459;51.172;6.682;2023-12-20T02:35:11;17.40;;;3.40;;
71610;SDS011;59459;51.172;6.682;2023-12-20T02:37:36;15.73;;;3.33;;
71610;SDS011;59459;51.172;6.682;2023-12-20T02:40:02;11.20;;;3.13;;
71610;SDS011;59459;51.172;6.682;2023-12-20T02:42:29;14.18;;;4.25;;
71610;SDS011;59459;51.172;6.682;2023-12-20T02:44:54;11.53;;;3.20;;
71610;SDS011;59459;51.172;6.682;2023-12-20T02:47:19;13.53;;;3.43;;
71610;SDS011;59459;51.172;6.682;2023-12-20T02:49:44;15.50;;;3.20;;
71610;SDS011;59459;51.172;6.682;2023-12-20T02:52:10;14.40;;;3.70;;
71610;SDS011;59459;51.172;6.682;2023-12-20T02:54:35;12.73;;;2.57;;
71610;SDS011;59459;51.172;6.682;2023-12-20T02:57:00;12.17;;;2.63;;
71610;SDS011;59459;51.172;6.682;2023-12-20T02:59:25;12.00;;;2.30;;
71610;SDS011;59459;51.172;6.682;2023-12-20T03:01:51;9.77;;;1.87;;
71610;SDS011;59459;51.172;6.682;2023-12-20T03:04:16;14.13;;;2.47;;
71610;SDS011;59459;51.172;6.682;2023-12-20T03:06:41;11.80;;;2.47;;
71610;SDS011;59459;51.172;6.682;2023-12-20T03:09:06;7.67;;;1.90;;
71610;SDS011;59459;51.172;6.682;2023-12-20T03:11:32;12.05;;;1.80;;
71610;SDS011;59459;51.172;6.682;2023-12-20T03:13:57;14.80;;;2.30;;
71610;SDS011;59459;51.172;6.682;2023-12-20T03:16:23;7.27;;;1.93;;
71610;SDS011;59459;51.172;6.682;2023-12-20T03:18:48;11.80;;;2.10;;
71610;SDS011;59459;51.172;6.682;2023-12-20T03:21:13;9.97;;;1.93;;
71610;SDS011;59459;51.172;6.682;2023-12-20T03:23:39;11.73;;;2.33;;
71610;SDS011;59459;51.172;6.682;2023-12-20T03:26:06;9.13;;;1.70;;
71610;SDS011;59459;51.172;6.682;2023-12-20T03:28:31;9.02;;;2.10;;
71610;SDS011;59459;51.172;6.682;2023-12-20T03:30:57;11.37;;;1.90;;
71610;SDS011;59459;51.172;6.682;2023-12-20T03:33:22;13.93;;;2.87;;
71610;SDS011;59459;51.172;6.682;2023-12-20T03:35:47;13.80;;;2.77;;
71610;SDS011;59459;51.172;6.682;2023-12-20T03:38:12;10.47;;;2.10;;
71610;SDS011;59459;51.172;6.682;2023-12-20T03:40:37;12.83;;;2.10;;
71610;SDS011;59459;51.172;6.682;2023-12-20T03:43:03;12.23;;;2.23;;
71610;SDS011;59459;51.172;6.682;2023-12-20T03:45:28;6.23;;;1.83;;
71610;SDS011;59459;51.172;6.682;2023-12-20T03:47:53;13.70;;;2.70;;
71610;SDS011;59459;51.172;6.682;2023-12-20T03:50:23;7.03;;;1.85;;
71610;SDS011;59459;51.172;6.682;2023-12-20T03:52:48;10.27;;;2.40;;
71610;SDS011;59459;51.172;6.682;2023-12-20T03:55:13;14.47;;;2.53;;
71610;SDS011;59459;51.172;6.682;2023-12-20T03:57:38;12.03;;;2.53;;
71610;SDS011;59459;51.172;6.682;2023-12-20T04:00:04;10.77;;;2.10;;
71610;SDS011;59459;51.172;6.682;2023-12-20T04:02:30;9.43;;;1.70;;
71610;SDS011;59459;51.172;6.682;2023-12-20T04:04:55;9.47;;;2.70;;
71610;SDS011;59459;51.172;6.682;2023-12-20T04:07:20;16.67;;;2.43;;
71610;SDS011;59459;51.172;6.682;2023-12-20T04:09:46;13.20;;;3.47;;
71610;SDS011;59459;51.172;6.682;2023-12-20T04:12:13;18.73;;;2.73;;
71610;SDS011;59459;51.172;6.682;2023-12-20T04:14:38;13.33;;;2.67;;
71610;SDS011;59459;51.172;6.682;2023-12-20T04:17:03;10.07;;;2.97;;
71610;SDS011;59459;51.172;6.682;2023-12-20T04:19:28;11.37;;;3.00;;
71610;SDS011;59459;51.172;6.682;2023-12-20T04:21:53;12.70;;;3.57;;
71610;SDS011;59459;51.172;6.682;2023-12-20T04:24:19;13.90;;;3.17;;
71610;SDS011;59459;51.172;6.682;2023-12-20T04:26:44;11.03;;;3.30;;
71610;SDS011;59459;51.172;6.682;2023-12-20T04:29:09;13.93;;;3.33;;
71610;SDS011;59459;51.172;6.682;2023-12-20T04:31:34;17.33;;;3.80;;
71610;SDS011;59459;51.172;6.682;2023-12-20T04:33:59;12.60;;;2.90;;
71610;SDS011;59459;51.172;6.682;2023-12-20T04:36:25;10.47;;;2.47;;
71610;SDS011;59459;51.172;6.682;2023-12-20T04:38:51;13.10;;;2.97;;
71610;SDS011;59459;51.172;6.682;2023-12-20T04:41:17;10.73;;;2.63;;
71610;SDS011;59459;51.172;6.682;2023-12-20T04:43:43;12.25;;;3.13;;
71610;SDS011;59459;51.172;6.682;2023-12-20T04:46:09;10.30;;;3.33;;
71610;SDS011;59459;51.172;6.682;2023-12-20T04:48:34;13.40;;;3.80;;
71610;SDS011;59459;51.172;6.682;2023-12-20T04:50:59;19.70;;;2.97;;
71610;SDS011;59459;51.172;6.682;2023-12-20T04:53:24;11.57;;;3.27;;
71610;SDS011;59459;51.172;6.682;2023-12-20T04:55:49;14.90;;;3.43;;
71610;SDS011;59459;51.172;6.682;2023-12-20T04:58:14;15.20;;;3.23;;
71610;SDS011;59459;51.172;6.682;2023-12-20T05:00:40;14.30;;;3.30;;
71610;SDS011;59459;51.172;6.682;2023-12-20T05:03:05;13.07;;;2.47;;
71610;SDS011;59459;51.172;6.682;2023-12-20T05:05:31;13.07;;;2.87;;
71610;SDS011;59459;51.172;6.682;2023-12-20T05:07:57;14.77;;;3.80;;
71610;SDS011;59459;51.172;6.682;2023-12-20T05:10:22;11.93;;;3.10;;
71610;SDS011;59459;51.172;6.682;2023-12-20T05:12:47;10.83;;;4.27;;
71610;SDS011;59459;51.172;6.682;2023-12-20T05:15:12;15.90;;;3.30;;
71610;SDS011;59459;51.172;6.682;2023-12-20T05:17:37;11.43;;;2.60;;
71610;SDS011;59459;51.172;6.682;2023-12-20T05:20:03;13.03;;;3.47;;
71610;SDS011;59459;51.172;6.682;2023-12-20T05:22:28;15.50;;;3.42;;
71610;SDS011;59459;51.172;6.682;2023-12-20T05:24:53;13.97;;;3.37;;
71610;SDS011;59459;51.172;6.682;2023-12-20T05:27:18;8.73;;;2.60;;
71610;SDS011;59459;51.172;6.682;2023-12-20T05:29:44;11.50;;;3.53;;
71610;SDS011;59459;51.172;6.682;2023-12-20T05:32:09;11.40;;;3.10;;
71610;SDS011;59459;51.172;6.682;2023-12-20T05:34:35;11.97;;;3.80;;
71610;SDS011;59459;51.172;6.682;2023-12-20T05:37:00;11.10;;;3.33;;
71610;SDS011;59459;51.172;6.682;2023-12-20T05:39:26;17.27;;;2.85;;
71610;SDS011;59459;51.172;6.682;2023-12-20T05:41:51;12.70;;;3.50;;
71610;SDS011;59459;51.172;6.682;2023-12-20T05:44:17;14.67;;;3.37;;
71610;SDS011;59459;51.172;6.682;2023-12-20T05:46:42;10.63;;;2.77;;
71610;SDS011;59459;51.172;6.682;2023-12-20T05:49:07;15.97;;;3.40;;
71610;SDS011;59459;51.172;6.682;2023-12-20T05:51:33;16.08;;;3.53;;
71610;SDS011;59459;51.172;6.682;2023-12-20T05:53:58;15.13;;;3.30;;
71610;SDS011;59459;51.172;6.682;2023-12-20T05:56:23;14.43;;;3.83;;
71610;SDS011;59459;51.172;6.682;2023-12-20T05:58:48;12.37;;;2.93;;
71610;SDS011;59459;51.172;6.682;2023-12-20T06:01:14;16.33;;;4.13;;
71610;SDS011;59459;51.172;6.682;2023-12-20T06:03:41;11.73;;;2.70;;
71610;SDS011;59459;51.172;6.682;2023-12-20T06:06:06;9.10;;;2.78;;
71610;SDS011;59459;51.172;6.682;2023-12-20T06:08:32;13.37;;;2.77;;
71610;SDS011;59459;51.172;6.682;2023-12-20T06:10:57;10.70;;;2.80;;
71610;SDS011;59459;51.172;6.682;2023-12-20T06:13:22;11.50;;;3.00;;
71610;SDS011;59459;51.172;6.682;2023-12-20T06:15:47;12.50;;;2.63;;
71610;SDS011;59459;51.172;6.682;2023-12-20T06:18:12;11.40;;;2.83;;
71610;SDS011;59459;51.172;6.682;2023-12-20T06:20:38;11.63;;;2.53;;
71610;SDS011;59459;51.172;6.682;2023-12-20T06:23:03;10.73;;;2.27;;
71610;SDS011;59459;51.172;6.682;2023-12-20T06:25:28;12.07;;;2.97;;
71610;SDS011;59459;51.172;6.682;2023-12-20T06:27:53;9.00;;;2.77;;
71610;SDS011;59459;51.172;6.682;2023-12-20T06:30:19;14.97;;;2.87;;
71610;SDS011;59459;51.172;6.682;2023-12-20T06:32:44;15.50;;;3.70;;
71610;SDS011;59459;51.172;6.682;2023-12-20T06:35:11;11.18;;;3.42;;
71610;SDS011;59459;51.172;6.682;2023-12-20T06:37:37;15.00;;;2.90;;
71610;SDS011;59459;51.172;6.682;2023-12-20T06:40:02;14.73;;;3.43;;
71610;SDS011;59459;51.172;6.682;2023-12-20T06:42:27;12.07;;;2.70;;
71610;SDS011;59459;51.172;6.682;2023-12-20T06:44:52;8.40;;;2.50;;
71610;SDS011;59459;51.172;6.682;2023-12-20T06:47:18;14.03;;;2.77;;
71610;SDS011;59459;51.172;6.682;2023-12-20T06:49:43;16.40;;;3.00;;
71610;SDS011;59459;51.172;6.682;2023-12-20T06:52:08;16.77;;;3.23;;
71610;SDS011;59459;51.172;6.682;2023-12-20T06:54:33;13.47;;;3.10;;
71610;SDS011;59459;51.172;6.682;2023-12-20T06:57:01;15.07;;;3.10;;
71610;SDS011;59459;51.172;6.682;2023-12-20T06:59:28;14.85;;;2.78;;
71610;SDS011;59459;51.172;6.682;2023-12-20T07:01:53;14.87;;;3.20;;
71610;SDS011;59459;51.172;6.682;2023-12-20T07:04:19;14.20;;;3.10;;
71610;SDS011;59459;51.172;6.682;2023-12-20T07:06:46;15.32;;;3.10;;
71610;SDS011;59459;51.172;6.682;2023-12-20T07:09:12;14.03;;;2.83;;
71610;SDS011;59459;51.172;6.682;2023-12-20T07:11:40;15.88;;;3.33;;
71610;SDS011;59459;51.172;6.682;2023-12-20T07:14:05;15.48;;;3.40;;
71610;SDS011;59459;51.172;6.682;2023-12-20T07:16:31;13.50;;;3.27;;
71610;SDS011;59459;51.172;6.682;2023-12-20T07:18:56;11.43;;;3.13;;
71610;SDS011;59459;51.172;6.682;2023-12-20T07:21:22;15.87;;;3.07;;
71610;SDS011;59459;51.172;6.682;2023-12-20T07:23:47;12.45;;;3.05;;
71610;SDS011;59459;51.172;6.682;2023-12-20T07:26:12;12.43;;;3.53;;
71610;SDS011;59459;51.172;6.682;2023-12-20T07:28:37;12.00;;;3.77;;
71610;SDS011;59459;51.172;6.682;2023-12-20T07:31:03;17.00;;;3.80;;
71610;SDS011;59459;51.172;6.682;2023-12-20T07:33:28;19.33;;;4.37;;
71610;SDS011;59459;51.172;6.682;2023-12-20T07:35:53;17.17;;;4.30;;
71610;SDS011;59459;51.172;6.682;2023-12-20T07:38:18;10.63;;;2.73;;
71610;SDS011;59459;51.172;6.682;2023-12-20T07:40:43;11.93;;;3.50;;
71610;SDS011;59459;51.172;6.682;2023-12-20T07:43:12;14.30;;;3.87;;
71610;SDS011;59459;51.172;6.682;2023-12-20T07:45:37;10.00;;;3.70;;
71610;SDS011;59459;51.172;6.682;2023-12-20T07:48:03;16.52;;;3.50;;
71610;SDS011;59459;51.172;6.682;2023-12-20T07:50:28;13.60;;;3.87;;
71610;SDS011;59459;51.172;6.682;2023-12-20T07:52:53;12.40;;;3.70;;
71610;SDS011;59459;51.172;6.682;2023-12-20T07:55:19;13.10;;;3.73;;
71610;SDS011;59459;51.172;6.682;2023-12-20T07:57:44;11.33;;;4.10;;
71610;SDS011;59459;51.172;6.682;2023-12-20T08:00:09;14.87;;;2.87;;
71610;SDS011;59459;51.172;6.682;2023-12-20T08:02:35;17.57;;;3.87;;
71610;SDS011;59459;51.172;6.682;2023-12-20T08:05:00;20.70;;;4.33;;
71610;SDS011;59459;51.172;6.682;2023-12-20T08:07:25;15.00;;;4.60;;
71610;SDS011;59459;51.172;6.682;2023-12-20T08:09:50;16.47;;;4.73;;
71610;SDS011;59459;51.172;6.682;2023-12-20T08:12:16;16.08;;;4.05;;
71610;SDS011;59459;51.172;6.682;2023-12-20T08:14:42;18.00;;;4.10;;
71610;SDS011;59459;51.172;6.682;2023-12-20T08:17:07;13.93;;;3.07;;
71610;SDS011;59459;51.172;6.682;2023-12-20T08:19:32;15.00;;;3.20;;
71610;SDS011;59459;51.172;6.682;2023-12-20T08:21:57;12.63;;;3.53;;
71610;SDS011;59459;51.172;6.682;2023-12-20T08:24:23;13.37;;;3.50;;
71610;SDS011;59459;51.172;6.682;2023-12-20T08:26:48;15.67;;;3.10;;
71610;SDS011;59459;51.172;6.682;2023-12-20T08:29:13;9.77;;;3.20;;
71610;SDS011;59459;51.172;6.682;2023-12-20T08:31:39;10.40;;;3.00;;
71610;SDS011;59459;51.172;6.682;2023-12-20T08:34:04;14.87;;;3.33;;
71610;SDS011;59459;51.172;6.682;2023-12-20T08:36:29;13.33;;;2.97;;
71610;SDS011;59459;51.172;6.682;2023-12-20T08:38:54;18.03;;;3.57;;
71610;SDS011;59459;51.172;6.682;2023-12-20T08:41:20;14.17;;;3.17;;
71610;SDS011;59459;51.172;6.682;2023-12-20T08:43:45;16.53;;;3.13;;
71610;SDS011;59459;51.172;6.682;2023-12-20T08:46:10;15.20;;;3.57;;
71610;SDS011;59459;51.172;6.682;2023-12-20T08:48:36;14.05;;;3.42;;
71610;SDS011;59459;51.172;6.682;2023-12-20T08:51:02;9.93;;;2.70;;
71610;SDS011;59459;51.172;6.682;2023-12-20T08:53:27;13.47;;;3.50;;
71610;SDS011;59459;51.172;6.682;2023-12-20T08:55:52;17.10;;;3.43;;
71610;SDS011;59459;51.172;6.682;2023-12-20T08:58:17;15.33;;;3.23;;
71610;SDS011;59459;51.172;6.682;2023-12-20T09:00:43;12.10;;;4.07;;
71610;SDS011;59459;51.172;6.682;2023-12-20T09:03:08;18.70;;;4.20;;
71610;SDS011;59459;51.172;6.682;2023-12-20T09:05:33;12.45;;;2.70;;
71610;SDS011;59459;51.172;6.682;2023-12-20T09:07:59;14.57;;;3.37;;
71610;SDS011;59459;51.172;6.682;2023-12-20T09:10:24;10.83;;;2.80;;
71610;SDS011;59459;51.172;6.682;2023-12-20T09:12:50;15.37;;;2.77;;
71610;SDS011;59459;51.172;6.682;2023-12-20T09:15:15;9.27;;;2.35;;
71610;SDS011;59459;51.172;6.682;2023-12-20T09:17:40;10.30;;;2.87;;
71610;SDS011;59459;51.172;6.682;2023-12-20T09:20:06;9.13;;;2.05;;
71610;SDS011;59459;51.172;6.682;2023-12-20T09:22:33;11.73;;;3.13;;
71610;SDS011;59459;51.172;6.682;2023-12-20T09:24:58;10.15;;;3.00;;
71610;SDS011;59459;51.172;6.682;2023-12-20T09:27:23;17.47;;;2.33;;
71610;SDS011;59459;51.172;6.682;2023-12-20T09:29:49;16.23;;;2.30;;
71610;SDS011;59459;51.172;6.682;2023-12-20T09:32:14;12.60;;;2.50;;
71610;SDS011;59459;51.172;6.682;2023-12-20T09:34:40;14.93;;;2.17;;
71610;SDS011;59459;51.172;6.682;2023-12-20T09:37:06;12.23;;;2.60;;
71610;SDS011;59459;51.172;6.682;2023-12-20T09:39:32;13.55;;;2.13;;
71610;SDS011;59459;51.172;6.682;2023-12-20T09:42:02;11.33;;;2.40;;
71610;SDS011;59459;51.172;6.682;2023-12-20T09:44:27;12.40;;;2.25;;
71610;SDS011;59459;51.172;6.682;2023-12-20T09:46:53;10.17;;;2.07;;
71610;SDS011;59459;51.172;6.682;2023-12-20T09:49:19;9.85;;;2.33;;
71610;SDS011;59459;51.172;6.682;2023-12-20T09:51:46;10.80;;;2.33;;
71610;SDS011;59459;51.172;6.682;2023-12-20T09:54:12;10.70;;;2.10;;
71610;SDS011;59459;51.172;6.682;2023-12-20T09:56:37;11.82;;;2.50;;
71610;SDS011;59459;51.172;6.682;2023-12-20T09:59:03;13.40;;;2.37;;
71610;SDS011;59459;51.172;6.682;2023-12-20T10:01:28;11.43;;;2.63;;
71610;SDS011;59459;51.172;6.682;2023-12-20T10:03:54;9.90;;;2.83;;
71610;SDS011;59459;51.172;6.682;2023-12-20T10:06:19;8.82;;;2.30;;
71610;SDS011;59459;51.172;6.682;2023-12-20T10:08:44;14.60;;;2.37;;
71610;SDS011;59459;51.172;6.682;2023-12-20T10:11:10;8.97;;;2.73;;
71610;SDS011;59459;51.172;6.682;2023-12-20T10:13:38;18.80;;;3.27;;
71610;SDS011;59459;51.172;6.682;2023-12-20T10:16:04;15.88;;;2.78;;
71610;SDS011;59459;51.172;6.682;2023-12-20T10:18:31;13.63;;;3.03;;
71610;SDS011;59459;51.172;6.682;2023-12-20T10:20:56;9.43;;;2.17;;
71610;SDS011;59459;51.172;6.682;2023-12-20T10:23:21;10.27;;;3.20;;
71610;SDS011;59459;51.172;6.682;2023-12-20T10:25:56;13.45;;;2.70;;
71610;SDS011;59459;51.172;6.682;2023-12-20T10:28:23;11.50;;;2.40;;
71610;SDS011;59459;51.172;6.682;2023-12-20T10:30:52;8.43;;;1.93;;
71610;SDS011;59459;51.172;6.682;2023-12-20T10:33:24;12.20;;;2.23;;
71610;SDS011;59459;51.172;6.682;2023-12-20T10:35:49;9.63;;;2.95;;
71610;SDS011;59459;51.172;6.682;2023-12-20T10:38:15;12.18;;;2.47;;
71610;SDS011;59459;51.172;6.682;2023-12-20T10:40:40;7.90;;;2.03;;
71610;SDS011;59459;51.172;6.682;2023-12-20T10:43:05;15.77;;;2.67;;
71610;SDS011;59459;51.172;6.682;2023-12-20T10:45:31;8.57;;;2.50;;
71610;SDS011;59459;51.172;6.682;2023-12-20T10:47:57;10.82;;;2.95;;
71610;SDS011;59459;51.172;6.682;2023-12-20T10:50:24;13.23;;;2.67;;
71610;SDS011;59459;51.172;6.682;2023-12-20T10:52:49;13.40;;;3.00;;
71610;SDS011;59459;51.172;6.682;2023-12-20T10:55:20;12.15;;;2.45;;
71610;SDS011;59459;51.172;6.682;2023-12-20T10:57:45;6.00;;;2.00;;
71610;SDS011;59459;51.172;6.682;2023-12-20T11:00:15;8.60;;;2.78;;
71610;SDS011;59459;51.172;6.682;2023-12-20T11:02:41;11.37;;;2.63;;
71610;SDS011;59459;51.172;6.682;2023-12-20T11:07:43;10.70;;;2.90;;
71610;SDS011;59459;51.172;6.682;2023-12-20T11:10:21;7.72;;;2.10;;
71610;SDS011;59459;51.172;6.682;2023-12-20T11:13:08;11.40;;;2.57;;
71610;SDS011;59459;51.172;6.682;2023-12-20T11:15:36;8.15;;;3.67;;
71610;SDS011;59459;51.172;6.682;2023-12-20T11:18:01;14.85;;;3.15;;
71610;SDS011;59459;51.172;6.682;2023-12-20T11:20:39;8.37;;;2.50;;
71610;SDS011;59459;51.172;6.682;2023-12-20T11:23:06;11.48;;;3.05;;
71610;SDS011;59459;51.172;6.682;2023-12-20T11:26:13;12.15;;;3.00;;
71610;SDS011;59459;51.172;6.682;2023-12-20T11:28:23;12.90;;;2.47;;
71610;SDS011;59459;51.172;6.682;2023-12-20T11:30:52;11.77;;;2.38;;
71610;SDS011;59459;51.172;6.682;2023-12-20T11:33:24;12.63;;;2.35;;
71610;SDS011;59459;51.172;6.682;2023-12-20T11:35:50;12.60;;;2.42;;
71610;SDS011;59459;51.172;6.682;2023-12-20T11:38:15;10.77;;;2.60;;
71610;SDS011;59459;51.172;6.682;2023-12-20T11:40:41;8.87;;;2.07;;
71610;SDS011;59459;51.172;6.682;2023-12-20T11:43:06;12.60;;;1.98;;
71610;SDS011;59459;51.172;6.682;2023-12-20T11:45:32;9.43;;;2.55;;
71610;SDS011;59459;51.172;6.682;2023-12-20T11:47:59;12.30;;;2.60;;
71610;SDS011;59459;51.172;6.682;2023-12-20T11:50:24;11.75;;;2.85;;
71610;SDS011;59459;51.172;6.682;2023-12-20T11:52:51;11.57;;;2.50;;
71610;SDS011;59459;51.172;6.682;2023-12-20T11:55:17;15.27;;;2.58;;
71610;SDS011;59459;51.172;6.682;2023-12-20T11:57:42;8.70;;;2.43;;
71610;SDS011;59459;51.172;6.682;2023-12-20T12:00:08;11.40;;;2.77;;
71610;SDS011;59459;51.172;6.682;2023-12-20T12:02:33;10.43;;;2.28;;
71610;SDS011;59459;51.172;6.682;2023-12-20T12:05:02;10.90;;;2.67;;
71610;SDS011;59459;51.172;6.682;2023-12-20T12:07:30;10.25;;;2.55;;
71610;SDS011;59459;51.172;6.682;2023-12-20T12:09:55;11.07;;;2.83;;
71610;SDS011;59459;51.172;6.682;2023-12-20T12:12:20;8.93;;;2.63;;
71610;SDS011;59459;51.172;6.682;2023-12-20T12:14:46;12.73;;;3.27;;
71610;SDS011;59459;51.172;6.682;2023-12-20T12:17:11;16.00;;;3.23;;
71610;SDS011;59459;51.172;6.682;2023-12-20T12:19:37;14.40;;;3.45;;
71610;SDS011;59459;51.172;6.682;2023-12-20T12:24:37;15.57;;;3.65;;
71610;SDS011;59459;51.172;6.682;2023-12-20T12:27:03;9.40;;;2.83;;
71610;SDS011;59459;51.172;6.682;2023-12-20T12:29:28;13.87;;;3.40;;
71610;SDS011;59459;51.172;6.682;2023-12-20T12:31:53;11.47;;;3.37;;
71610;SDS011;59459;51.172;6.682;2023-12-20T12:34:19;13.73;;;3.47;;
71610;SDS011;59459;51.172;6.682;2023-12-20T12:36:44;12.97;;;3.17;;
71610;SDS011;59459;51.172;6.682;2023-12-20T12:39:13;8.18;;;3.35;;
71610;SDS011;59459;51.172;6.682;2023-12-20T12:41:40;11.85;;;3.88;;
71610;SDS011;59459;51.172;6.682;2023-12-20T12:44:05;13.13;;;3.03;;
71610;SDS011;59459;51.172;6.682;2023-12-20T12:46:31;17.93;;;4.47;;
71610;SDS011;59459;51.172;6.682;2023-12-20T12:48:56;12.00;;;3.50;;
71610;SDS011;59459;51.172;6.682;2023-12-20T12:51:21;10.67;;;3.63;;
71610;SDS011;59459;51.172;6.682;2023-12-20T12:53:46;14.87;;;3.70;;
71610;SDS011;59459;51.172;6.682;2023-12-20T12:56:12;10.90;;;3.70;;
71610;SDS011;59459;51.172;6.682;2023-12-20T12:58:38;10.43;;;3.65;;
71610;SDS011;59459;51.172;6.682;2023-12-20T13:01:03;12.37;;;3.77;;
71610;SDS011;59459;51.172;6.682;2023-12-20T13:03:28;11.77;;;3.63;;
71610;SDS011;59459;51.172;6.682;2023-12-20T13:05:53;12.53;;;3.80;;
71610;SDS011;59459;51.172;6.682;2023-12-20T13:08:19;9.73;;;3.67;;
71610;SDS011;59459;51.172;6.682;2023-12-20T13:10:44;11.60;;;3.50;;
71610;SDS011;59459;51.172;6.682;2023-12-20T13:13:09;11.60;;;4.33;;
71610;SDS011;59459;51.172;6.682;2023-12-20T13:15:34;14.90;;;4.37;;
71610;SDS011;59459;51.172;6.682;2023-12-20T13:17:59;15.43;;;3.90;;
71610;SDS011;59459;51.172;6.682;2023-12-20T13:20:25;13.10;;;3.50;;
71610;SDS011;59459;51.172;6.682;2023-12-20T13:22:50;15.80;;;4.03;;
71610;SDS011;59459;51.172;6.682;2023-12-20T13:25:15;17.03;;;4.27;;
71610;SDS011;59459;51.172;6.682;2023-12-20T13:27:41;14.43;;;4.30;;
71610;SDS011;59459;51.172;6.682;2023-12-20T13:30:06;12.03;;;4.27;;
71610;SDS011;59459;51.172;6.682;2023-12-20T13:32:32;11.33;;;4.47;;
71610;SDS011;59459;51.172;6.682;2023-12-20T13:34:57;10.83;;;4.53;;
71610;SDS011;59459;51.172;6.682;2023-12-20T13:37:22;9.63;;;3.70;;
71610;SDS011;59459;51.172;6.682;2023-12-20T13:39:48;12.13;;;3.70;;
71610;SDS011;59459;51.172;6.682;2023-12-20T13:42:13;18.90;;;4.23;;
71610;SDS011;59459;51.172;6.682;2023-12-20T13:44:38;14.33;;;3.47;;
71610;SDS011;59459;51.172;6.682;2023-12-20T13:47:04;10.50;;;3.73;;
71610;SDS011;59459;51.172;6.682;2023-12-20T13:49:29;11.97;;;3.97;;
71610;SDS011;59459;51.172;6.682;2023-12-20T13:51:54;9.37;;;3.27;;
71610;SDS011;59459;51.172;6.682;2023-12-20T13:54:20;9.18;;;3.17;;
71610;SDS011;59459;51.172;6.682;2023-12-20T13:56:47;10.20;;;3.65;;
71610;SDS011;59459;51.172;6.682;2023-12-20T13:59:12;12.97;;;3.37;;
71610;SDS011;59459;51.172;6.682;2023-12-20T14:01:38;11.95;;;3.20;;
71610;SDS011;59459;51.172;6.682;2023-12-20T14:04:04;8.73;;;3.03;;
71610;SDS011;59459;51.172;6.682;2023-12-20T14:06:29;9.47;;;3.47;;
71610;SDS011;59459;51.172;6.682;2023-12-20T14:08:54;7.80;;;2.83;;
71610;SDS011;59459;51.172;6.682;2023-12-20T14:11:20;13.00;;;3.80;;
71610;SDS011;59459;51.172;6.682;2023-12-20T14:13:45;11.53;;;3.90;;
71610;SDS011;59459;51.172;6.682;2023-12-20T14:16:10;12.30;;;3.40;;
71610;SDS011;59459;51.172;6.682;2023-12-20T14:18:35;10.90;;;3.80;;
71610;SDS011;59459;51.172;6.682;2023-12-20T14:21:01;10.73;;;3.53;;
71610;SDS011;59459;51.172;6.682;2023-12-20T14:23:26;9.53;;;3.43;;
71610;SDS011;59459;51.172;6.682;2023-12-20T14:25:51;10.43;;;3.70;;
71610;SDS011;59459;51.172;6.682;2023-12-20T14:28:16;10.60;;;3.20;;
71610;SDS011;59459;51.172;6.682;2023-12-20T14:30:41;11.47;;;3.70;;